sensor_id;sensor_type;location;lat;lon;timestamp;temperature;humidity
7934;DHT22;4012;48.896;9.192;2023-07-20T00:01:15;21.10;99.90
7934;DHT22;4012;48.896;9.192;2023-07-20T00:03:41;21.10;99.90
7934;DHT22;4012;48.896;9.192;2023-07-20T00:06:07;21.00;99.90
7934;DHT22;4012;48.896;9.192;2023-07-20T00:08:33;21.00;99.90
7934;DHT22;4012;48.896;9.192;2023-07-20T00:10:58;20.90;99.90
7934;DHT22;4012;48.896;9.192;2023-07-20T00:13:24;20.90;99.90
7934;DHT22;4012;48.896;9.192;2023-07-20T00:15:52;20.90;99.90
7934;DHT22;4012;48.896;9.192;2023-07-20T00:18:17;20.90;99.90
7934;DHT22;4012;48.896;9.192;2023-07-20T00:20:43;20.80;99.90
7934;DHT22;4012;48.896;9.192;2023-07-20T00:23:09;20.70;99.90
7934;DHT22;4012;48.896;9.192;2023-07-20T00:25:34;20.80;99.90
7934;DHT22;4012;48.896;9.192;2023-07-20T00:28:01;20.80;99.90
7934;DHT22;4012;48.896;9.192;2023-07-20T00:30:27;20.70;99.90
7934;DHT22;4012;48.896;9.192;2023-07-20T00:32:52;20.70;99.90
7934;DHT22;4012;48.896;9.192;2023-07-20T00:35:18;20.70;99.90
7934;DHT22;4012;48.896;9.192;2023-07-20T00:37:43;20.60;99.90
7934;DHT22;4012;48.896;9.192;2023-07-20T00:40:09;20.60;99.90
7934;DHT22;4012;48.896;9.192;2023-07-20T00:42:35;20.50;99.90
7934;DHT22;4012;48.896;9.192;2023-07-20T00:45:00;20.40;99.90
7934;DHT22;4012;48.896;9.192;2023-07-20T00:47:27;20.40;99.90
7934;DHT22;4012;48.896;9.192;2023-07-20T00:49:53;20.40;99.90
7934;DHT22;4012;48.896;9.192;2023-07-20T00:52:21;20.30;99.90
7934;DHT22;4012;48.896;9.192;2023-07-20T00:54:47;20.20;99.90
7934;DHT22;4012;48.896;9.192;2023-07-20T00:57:15;20.20;99.90
7934;DHT22;4012;48.896;9.192;2023-07-20T00:59:41;20.10;99.90
7934;DHT22;4012;48.896;9.192;2023-07-20T01:02:07;20.10;99.90
7934;DHT22;4012;48.896;9.192;2023-07-20T01:04:33;20.00;99.90
7934;DHT22;4012;48.896;9.192;2023-07-20T01:07:12;20.00;99.90
7934;DHT22;4012;48.896;9.192;2023-07-20T01:12:27;20.00;99.90
7934;DHT22;4012;48.896;9.192;2023-07-20T01:14:55;19.90;99.90
7934;DHT22;4012;48.896;9.192;2023-07-20T01:17:21;19.90;99.90
7934;DHT22;4012;48.896;9.192;2023-07-20T01:19:48;19.80;99.90
7934;DHT22;4012;48.896;9.192;2023-07-20T01:27:56;19.70;99.90
7934;DHT22;4012;48.896;9.192;2023-07-20T01:32:56;19.70;99.90
7934;DHT22;4012;48.896;9.192;2023-07-20T01:35:27;19.60;99.90
7934;DHT22;4012;48.896;9.192;2023-07-20T01:37:54;19.60;99.90
7934;DHT22;4012;48.896;9.192;2023-07-20T01:40:20;19.50;99.90
7934;DHT22;4012;48.896;9.192;2023-07-20T01:42:47;19.50;99.90
7934;DHT22;4012;48.896;9.192;2023-07-20T01:45:13;19.50;99.90
7934;DHT22;4012;48.896;9.192;2023-07-20T01:47:39;19.40;99.90
7934;DHT22;4012;48.896;9.192;2023-07-20T01:50:06;19.30;99.90
7934;DHT22;4012;48.896;9.192;2023-07-20T01:52:32;19.30;99.90
7934;DHT22;4012;48.896;9.192;2023-07-20T01:54:57;19.30;99.90
7934;DHT22;4012;48.896;9.192;2023-07-20T01:57:23;19.20;99.90
7934;DHT22;4012;48.896;9.192;2023-07-20T01:59:48;19.20;99.90
7934;DHT22;4012;48.896;9.192;2023-07-20T02:02:14;19.20;99.90
7934;DHT22;4012;48.896;9.192;2023-07-20T02:04:40;19.10;99.90
7934;DHT22;4012;48.896;9.192;2023-07-20T02:07:05;19.10;99.90
7934;DHT22;4012;48.896;9.192;2023-07-20T02:09:31;19.10;99.90
7934;DHT22;4012;48.896;9.192;2023-07-20T02:11:56;19.10;99.90
7934;DHT22;4012;48.896;9.192;2023-07-20T02:14:22;19.00;99.90
7934;DHT22;4012;48.896;9.192;2023-07-20T02:16:48;19.00;99.90
7934;DHT22;4012;48.896;9.192;2023-07-20T02:19:17;18.90;99.90
7934;DHT22;4012;48.896;9.192;2023-07-20T02:21:43;18.90;99.90
7934;DHT22;4012;48.896;9.192;2023-07-20T02:24:09;18.80;99.90
7934;DHT22;4012;48.896;9.192;2023-07-20T02:26:34;18.80;99.90
7934;DHT22;4012;48.896;9.192;2023-07-20T02:29:00;18.80;99.90
7934;DHT22;4012;48.896;9.192;2023-07-20T02:31:26;18.80;99.90
7934;DHT22;4012;48.896;9.192;2023-07-20T02:33:51;18.70;99.90
7934;DHT22;4012;48.896;9.192;2023-07-20T02:36:17;18.70;99.90
7934;DHT22;4012;48.896;9.192;2023-07-20T02:38:43;18.70;99.90
7934;DHT22;4012;48.896;9.192;2023-07-20T02:41:08;18.70;99.90
7934;DHT22;4012;48.896;9.192;2023-07-20T02:43:34;18.60;99.90
7934;DHT22;4012;48.896;9.192;2023-07-20T02:45:59;18.60;99.90
7934;DHT22;4012;48.896;9.192;2023-07-20T02:48:25;18.60;99.90
7934;DHT22;4012;48.896;9.192;2023-07-20T02:50:50;18.60;99.90
7934;DHT22;4012;48.896;9.192;2023-07-20T02:53:16;18.50;99.90
7934;DHT22;4012;48.896;9.192;2023-07-20T02:55:41;18.50;99.90
7934;DHT22;4012;48.896;9.192;2023-07-20T02:58:08;18.50;99.90
7934;DHT22;4012;48.896;9.192;2023-07-20T03:00:33;18.50;99.90
7934;DHT22;4012;48.896;9.192;2023-07-20T03:02:59;18.50;99.90
7934;DHT22;4012;48.896;9.192;2023-07-20T03:05:25;18.50;99.90
7934;DHT22;4012;48.896;9.192;2023-07-20T03:07:51;18.50;99.90
7934;DHT22;4012;48.896;9.192;2023-07-20T03:10:17;18.40;99.90
7934;DHT22;4012;48.896;9.192;2023-07-20T03:12:42;18.40;99.90
7934;DHT22;4012;48.896;9.192;2023-07-20T03:15:08;18.30;99.90
7934;DHT22;4012;48.896;9.192;2023-07-20T03:17:34;18.20;99.90
7934;DHT22;4012;48.896;9.192;2023-07-20T03:20:00;18.10;99.90
7934;DHT22;4012;48.896;9.192;2023-07-20T03:22:26;18.10;99.90
7934;DHT22;4012;48.896;9.192;2023-07-20T03:24:52;18.10;99.90
7934;DHT22;4012;48.896;9.192;2023-07-20T03:27:18;18.10;99.90
7934;DHT22;4012;48.896;9.192;2023-07-20T03:29:43;18.10;99.90
7934;DHT22;4012;48.896;9.192;2023-07-20T03:32:10;18.10;99.90
7934;DHT22;4012;48.896;9.192;2023-07-20T03:34:36;18.10;99.90
7934;DHT22;4012;48.896;9.192;2023-07-20T03:37:01;18.10;99.90
7934;DHT22;4012;48.896;9.192;2023-07-20T03:39:30;18.20;99.90
7934;DHT22;4012;48.896;9.192;2023-07-20T03:41:57;18.20;99.90
7934;DHT22;4012;48.896;9.192;2023-07-20T03:44:22;18.20;99.90
7934;DHT22;4012;48.896;9.192;2023-07-20T03:46:48;18.20;99.90
7934;DHT22;4012;48.896;9.192;2023-07-20T03:49:14;18.20;99.90
7934;DHT22;4012;48.896;9.192;2023-07-20T03:51:39;18.20;99.90
7934;DHT22;4012;48.896;9.192;2023-07-20T03:54:05;18.20;99.90
7934;DHT22;4012;48.896;9.192;2023-07-20T03:56:30;18.20;99.90
7934;DHT22;4012;48.896;9.192;2023-07-20T03:58:59;18.10;99.90
7934;DHT22;4012;48.896;9.192;2023-07-20T04:01:25;18.10;99.90
7934;DHT22;4012;48.896;9.192;2023-07-20T04:03:50;18.10;99.90
7934;DHT22;4012;48.896;9.192;2023-07-20T04:06:16;18.20;99.90
7934;DHT22;4012;48.896;9.192;2023-07-20T04:08:44;18.10;99.90
7934;DHT22;4012;48.896;9.192;2023-07-20T04:11:09;18.10;99.90
7934;DHT22;4012;48.896;9.192;2023-07-20T04:13:35;18.10;99.90
7934;DHT22;4012;48.896;9.192;2023-07-20T04:16:01;18.10;99.90
7934;DHT22;4012;48.896;9.192;2023-07-20T04:18:27;18.10;99.90
7934;DHT22;4012;48.896;9.192;2023-07-20T04:20:53;18.10;99.90
7934;DHT22;4012;48.896;9.192;2023-07-20T04:23:19;18.10;99.90
7934;DHT22;4012;48.896;9.192;2023-07-20T04:25:44;18.20;99.90
7934;DHT22;4012;48.896;9.192;2023-07-20T04:28:10;18.20;99.90
7934;DHT22;4012;48.896;9.192;2023-07-20T04:30:39;18.20;99.90
7934;DHT22;4012;48.896;9.192;2023-07-20T04:33:05;18.30;99.90
7934;DHT22;4012;48.896;9.192;2023-07-20T04:35:50;18.40;99.90
7934;DHT22;4012;48.896;9.192;2023-07-20T04:38:16;18.40;99.90
7934;DHT22;4012;48.896;9.192;2023-07-20T04:40:44;18.50;99.90
7934;DHT22;4012;48.896;9.192;2023-07-20T04:43:09;18.50;99.90
7934;DHT22;4012;48.896;9.192;2023-07-20T04:45:35;18.60;99.90
7934;DHT22;4012;48.896;9.192;2023-07-20T04:48:00;18.60;99.90
7934;DHT22;4012;48.896;9.192;2023-07-20T04:50:26;18.60;99.90
7934;DHT22;4012;48.896;9.192;2023-07-20T04:52:51;18.50;99.90
7934;DHT22;4012;48.896;9.192;2023-07-20T04:55:17;18.50;99.90
7934;DHT22;4012;48.896;9.192;2023-07-20T04:57:43;18.50;99.90
7934;DHT22;4012;48.896;9.192;2023-07-20T05:00:09;18.50;99.90
7934;DHT22;4012;48.896;9.192;2023-07-20T05:02:38;18.60;99.90
7934;DHT22;4012;48.896;9.192;2023-07-20T05:05:04;18.60;99.90
7934;DHT22;4012;48.896;9.192;2023-07-20T05:07:32;18.80;99.90
7934;DHT22;4012;48.896;9.192;2023-07-20T05:09:58;18.90;99.90
7934;DHT22;4012;48.896;9.192;2023-07-20T05:12:24;19.10;99.90
7934;DHT22;4012;48.896;9.192;2023-07-20T05:14:49;19.20;99.90
7934;DHT22;4012;48.896;9.192;2023-07-20T05:17:15;19.40;99.90
7934;DHT22;4012;48.896;9.192;2023-07-20T05:19:43;19.50;99.90
7934;DHT22;4012;48.896;9.192;2023-07-20T05:22:09;19.60;99.90
7934;DHT22;4012;48.896;9.192;2023-07-20T05:24:36;19.70;99.90
7934;DHT22;4012;48.896;9.192;2023-07-20T05:27:01;19.60;99.90
7934;DHT22;4012;48.896;9.192;2023-07-20T05:29:30;19.60;99.90
7934;DHT22;4012;48.896;9.192;2023-07-20T05:31:56;19.60;99.90
7934;DHT22;4012;48.896;9.192;2023-07-20T05:34:21;19.70;99.90
7934;DHT22;4012;48.896;9.192;2023-07-20T05:36:47;19.70;99.90
7934;DHT22;4012;48.896;9.192;2023-07-20T05:39:12;19.70;99.90
7934;DHT22;4012;48.896;9.192;2023-07-20T05:41:38;19.60;99.90
7934;DHT22;4012;48.896;9.192;2023-07-20T05:44:06;19.60;99.90
7934;DHT22;4012;48.896;9.192;2023-07-20T05:46:32;19.80;99.90
7934;DHT22;4012;48.896;9.192;2023-07-20T05:48:58;19.90;99.90
7934;DHT22;4012;48.896;9.192;2023-07-20T05:51:23;19.80;99.90
7934;DHT22;4012;48.896;9.192;2023-07-20T05:53:49;19.90;99.90
7934;DHT22;4012;48.896;9.192;2023-07-20T05:56:14;19.90;99.90
7934;DHT22;4012;48.896;9.192;2023-07-20T05:58:40;20.10;99.90
7934;DHT22;4012;48.896;9.192;2023-07-20T06:01:06;20.20;99.90
7934;DHT22;4012;48.896;9.192;2023-07-20T06:03:32;20.30;99.90
7934;DHT22;4012;48.896;9.192;2023-07-20T06:06:02;20.40;99.90
7934;DHT22;4012;48.896;9.192;2023-07-20T06:08:31;20.60;99.90
7934;DHT22;4012;48.896;9.192;2023-07-20T06:10:57;20.60;99.90
7934;DHT22;4012;48.896;9.192;2023-07-20T06:13:22;20.60;99.90
7934;DHT22;4012;48.896;9.192;2023-07-20T06:15:48;20.60;99.90
7934;DHT22;4012;48.896;9.192;2023-07-20T06:18:14;20.70;99.90
7934;DHT22;4012;48.896;9.192;2023-07-20T06:20:40;20.70;99.90
7934;DHT22;4012;48.896;9.192;2023-07-20T06:23:06;20.90;99.90
7934;DHT22;4012;48.896;9.192;2023-07-20T06:25:31;21.60;99.90
7934;DHT22;4012;48.896;9.192;2023-07-20T06:30:24;24.90;99.90
7934;DHT22;4012;48.896;9.192;2023-07-20T06:32:50;25.90;99.90
7934;DHT22;4012;48.896;9.192;2023-07-20T06:35:16;27.50;99.90
7934;DHT22;4012;48.896;9.192;2023-07-20T06:37:42;27.80;99.90
7934;DHT22;4012;48.896;9.192;2023-07-20T06:40:08;26.50;99.90
7934;DHT22;4012;48.896;9.192;2023-07-20T06:42:34;28.00;99.90
7934;DHT22;4012;48.896;9.192;2023-07-20T06:45:00;27.90;99.90
7934;DHT22;4012;48.896;9.192;2023-07-20T06:47:26;29.60;99.90
7934;DHT22;4012;48.896;9.192;2023-07-20T06:49:52;30.90;99.90
7934;DHT22;4012;48.896;9.192;2023-07-20T06:52:18;32.40;99.90
7934;DHT22;4012;48.896;9.192;2023-07-20T06:54:43;33.10;99.90
7934;DHT22;4012;48.896;9.192;2023-07-20T06:57:09;33.70;99.90
7934;DHT22;4012;48.896;9.192;2023-07-20T06:59:34;33.50;99.50
7934;DHT22;4012;48.896;9.192;2023-07-20T07:02:00;31.50;99.90
7934;DHT22;4012;48.896;9.192;2023-07-20T07:04:29;31.20;99.90
7934;DHT22;4012;48.896;9.192;2023-07-20T07:06:54;30.20;99.90
7934;DHT22;4012;48.896;9.192;2023-07-20T07:09:20;32.10;99.90
7934;DHT22;4012;48.896;9.192;2023-07-20T07:11:46;33.10;99.90
7934;DHT22;4012;48.896;9.192;2023-07-20T07:14:12;32.60;98.80
7934;DHT22;4012;48.896;9.192;2023-07-20T07:16:37;31.90;99.90
7934;DHT22;4012;48.896;9.192;2023-07-20T07:19:03;30.30;99.90
7934;DHT22;4012;48.896;9.192;2023-07-20T07:21:31;30.00;99.90
7934;DHT22;4012;48.896;9.192;2023-07-20T07:23:56;28.80;99.90
7934;DHT22;4012;48.896;9.192;2023-07-20T07:26:23;28.40;99.90
7934;DHT22;4012;48.896;9.192;2023-07-20T07:28:49;26.40;99.90
7934;DHT22;4012;48.896;9.192;2023-07-20T07:31:15;25.60;99.90
7934;DHT22;4012;48.896;9.192;2023-07-20T07:33:41;25.10;99.90
7934;DHT22;4012;48.896;9.192;2023-07-20T07:36:06;24.60;99.90
7934;DHT22;4012;48.896;9.192;2023-07-20T07:38:32;24.20;99.90
7934;DHT22;4012;48.896;9.192;2023-07-20T07:40:58;26.60;99.90
7934;DHT22;4012;48.896;9.192;2023-07-20T07:43:24;28.60;99.90
7934;DHT22;4012;48.896;9.192;2023-07-20T07:45:50;30.40;99.90
7934;DHT22;4012;48.896;9.192;2023-07-20T07:48:15;32.00;99.90
7934;DHT22;4012;48.896;9.192;2023-07-20T07:50:42;31.90;99.90
7934;DHT22;4012;48.896;9.192;2023-07-20T07:53:08;29.50;99.90
7934;DHT22;4012;48.896;9.192;2023-07-20T07:55:35;28.20;99.90
7934;DHT22;4012;48.896;9.192;2023-07-20T07:58:01;28.30;99.90
7934;DHT22;4012;48.896;9.192;2023-07-20T08:00:26;29.70;99.90
7934;DHT22;4012;48.896;9.192;2023-07-20T08:02:52;29.60;99.90
7934;DHT22;4012;48.896;9.192;2023-07-20T08:05:17;29.60;99.90
7934;DHT22;4012;48.896;9.192;2023-07-20T08:07:43;30.80;99.90
7934;DHT22;4012;48.896;9.192;2023-07-20T08:10:09;31.90;99.90
7934;DHT22;4012;48.896;9.192;2023-07-20T08:12:35;31.00;98.70
7934;DHT22;4012;48.896;9.192;2023-07-20T08:15:01;32.20;98.80
7934;DHT22;4012;48.896;9.192;2023-07-20T08:17:26;32.60;97.00
7934;DHT22;4012;48.896;9.192;2023-07-20T08:19:52;33.70;95.50
7934;DHT22;4012;48.896;9.192;2023-07-20T08:22:17;33.60;93.70
7934;DHT22;4012;48.896;9.192;2023-07-20T08:24:43;32.70;93.70
7934;DHT22;4012;48.896;9.192;2023-07-20T08:27:10;29.20;96.20
7934;DHT22;4012;48.896;9.192;2023-07-20T08:29:36;28.70;98.40
7934;DHT22;4012;48.896;9.192;2023-07-20T08:32:02;31.30;97.70
7934;DHT22;4012;48.896;9.192;2023-07-20T08:34:28;30.30;96.90
7934;DHT22;4012;48.896;9.192;2023-07-20T08:36:53;28.50;99.50
7934;DHT22;4012;48.896;9.192;2023-07-20T08:39:19;29.60;99.90
7934;DHT22;4012;48.896;9.192;2023-07-20T08:41:47;29.60;97.90
7934;DHT22;4012;48.896;9.192;2023-07-20T08:44:13;30.00;97.40
7934;DHT22;4012;48.896;9.192;2023-07-20T08:46:40;30.00;97.90
7934;DHT22;4012;48.896;9.192;2023-07-20T08:49:06;32.40;96.10
7934;DHT22;4012;48.896;9.192;2023-07-20T08:51:33;33.60;93.00
7934;DHT22;4012;48.896;9.192;2023-07-20T08:54:01;32.90;93.20
7934;DHT22;4012;48.896;9.192;2023-07-20T08:56:26;31.10;93.90
7934;DHT22;4012;48.896;9.192;2023-07-20T08:58:56;29.80;95.30
7934;DHT22;4012;48.896;9.192;2023-07-20T09:01:22;30.60;94.90
7934;DHT22;4012;48.896;9.192;2023-07-20T09:03:49;30.60;94.00
7934;DHT22;4012;48.896;9.192;2023-07-20T09:06:15;32.40;93.50
7934;DHT22;4012;48.896;9.192;2023-07-20T09:08:41;30.80;91.00
7934;DHT22;4012;48.896;9.192;2023-07-20T09:11:09;30.00;93.60
7934;DHT22;4012;48.896;9.192;2023-07-20T09:13:35;30.10;95.00
7934;DHT22;4012;48.896;9.192;2023-07-20T09:16:01;28.80;96.50
7934;DHT22;4012;48.896;9.192;2023-07-20T09:18:31;29.40;96.10
7934;DHT22;4012;48.896;9.192;2023-07-20T09:21:05;30.90;94.10
7934;DHT22;4012;48.896;9.192;2023-07-20T09:23:35;30.50;93.80
7934;DHT22;4012;48.896;9.192;2023-07-20T09:26:04;27.80;95.80
7934;DHT22;4012;48.896;9.192;2023-07-20T09:29:05;28.00;97.30
7934;DHT22;4012;48.896;9.192;2023-07-20T09:31:27;29.00;96.00
7934;DHT22;4012;48.896;9.192;2023-07-20T09:33:53;30.90;94.70
7934;DHT22;4012;48.896;9.192;2023-07-20T09:36:19;31.10;92.50
7934;DHT22;4012;48.896;9.192;2023-07-20T09:38:45;28.90;92.60
7934;DHT22;4012;48.896;9.192;2023-07-20T09:41:14;28.90;92.70
7934;DHT22;4012;48.896;9.192;2023-07-20T09:43:44;29.30;92.00
7934;DHT22;4012;48.896;9.192;2023-07-20T09:46:10;29.80;91.50
7934;DHT22;4012;48.896;9.192;2023-07-20T09:48:36;31.50;89.00
7934;DHT22;4012;48.896;9.192;2023-07-20T09:51:03;31.90;89.10
7934;DHT22;4012;48.896;9.192;2023-07-20T09:53:32;32.00;87.40
7934;DHT22;4012;48.896;9.192;2023-07-20T09:55:58;30.30;90.30
7934;DHT22;4012;48.896;9.192;2023-07-20T09:58:26;29.10;90.20
7934;DHT22;4012;48.896;9.192;2023-07-20T10:00:52;29.10;89.00
7934;DHT22;4012;48.896;9.192;2023-07-20T10:03:22;29.60;87.60
7934;DHT22;4012;48.896;9.192;2023-07-20T10:05:56;30.10;85.80
7934;DHT22;4012;48.896;9.192;2023-07-20T10:08:25;29.00;85.40
7934;DHT22;4012;48.896;9.192;2023-07-20T10:10:50;30.00;88.60
7934;DHT22;4012;48.896;9.192;2023-07-20T10:13:27;30.30;86.30
7934;DHT22;4012;48.896;9.192;2023-07-20T10:16:57;29.20;84.80
7934;DHT22;4012;48.896;9.192;2023-07-20T10:18:57;30.60;85.70
7934;DHT22;4012;48.896;9.192;2023-07-20T10:21:25;30.60;87.30
7934;DHT22;4012;48.896;9.192;2023-07-20T10:23:51;30.00;87.80
7934;DHT22;4012;48.896;9.192;2023-07-20T10:26:17;30.80;85.10
7934;DHT22;4012;48.896;9.192;2023-07-20T10:28:42;30.10;81.70
7934;DHT22;4012;48.896;9.192;2023-07-20T10:31:09;29.50;82.90
7934;DHT22;4012;48.896;9.192;2023-07-20T10:33:37;29.40;80.50
7934;DHT22;4012;48.896;9.192;2023-07-20T10:36:04;29.80;80.90
7934;DHT22;4012;48.896;9.192;2023-07-20T10:41:16;29.10;87.50
7934;DHT22;4012;48.896;9.192;2023-07-20T10:43:45;29.60;86.20
7934;DHT22;4012;48.896;9.192;2023-07-20T10:46:14;30.20;84.40
7934;DHT22;4012;48.896;9.192;2023-07-20T10:49:04;30.60;84.30
7934;DHT22;4012;48.896;9.192;2023-07-20T10:51:38;29.00;87.70
7934;DHT22;4012;48.896;9.192;2023-07-20T10:54:08;29.60;86.10
7934;DHT22;4012;48.896;9.192;2023-07-20T10:56:34;30.10;84.30
7934;DHT22;4012;48.896;9.192;2023-07-20T10:59:00;27.80;81.20
7934;DHT22;4012;48.896;9.192;2023-07-20T11:01:30;27.60;81.10
7934;DHT22;4012;48.896;9.192;2023-07-20T11:04:00;27.10;83.60
7934;DHT22;4012;48.896;9.192;2023-07-20T11:09:10;26.90;84.80
7934;DHT22;4012;48.896;9.192;2023-07-20T11:11:39;27.30;84.20
7934;DHT22;4012;48.896;9.192;2023-07-20T11:14:21;27.00;85.50
7934;DHT22;4012;48.896;9.192;2023-07-20T11:16:48;27.30;89.40
7934;DHT22;4012;48.896;9.192;2023-07-20T11:19:25;27.70;90.30
7934;DHT22;4012;48.896;9.192;2023-07-20T11:21:52;27.00;87.90
7934;DHT22;4012;48.896;9.192;2023-07-20T11:24:19;26.80;87.30
7934;DHT22;4012;48.896;9.192;2023-07-20T11:26:54;27.40;85.80
7934;DHT22;4012;48.896;9.192;2023-07-20T11:29:22;27.10;81.50
7934;DHT22;4012;48.896;9.192;2023-07-20T11:31:48;26.70;81.50
7934;DHT22;4012;48.896;9.192;2023-07-20T11:34:17;26.40;82.40
7934;DHT22;4012;48.896;9.192;2023-07-20T11:36:45;26.50;83.20
7934;DHT22;4012;48.896;9.192;2023-07-20T11:39:15;27.00;84.30
7934;DHT22;4012;48.896;9.192;2023-07-20T11:41:47;27.50;81.20
7934;DHT22;4012;48.896;9.192;2023-07-20T11:44:13;26.90;79.20
7934;DHT22;4012;48.896;9.192;2023-07-20T11:46:41;27.00;79.50
7934;DHT22;4012;48.896;9.192;2023-07-20T11:49:07;27.10;80.10
7934;DHT22;4012;48.896;9.192;2023-07-20T11:51:33;26.60;81.20
7934;DHT22;4012;48.896;9.192;2023-07-20T11:54:01;26.90;80.20
7934;DHT22;4012;48.896;9.192;2023-07-20T11:56:27;26.70;81.80
7934;DHT22;4012;48.896;9.192;2023-07-20T11:58:57;26.90;84.30
7934;DHT22;4012;48.896;9.192;2023-07-20T12:01:25;27.00;85.60
7934;DHT22;4012;48.896;9.192;2023-07-20T12:03:55;27.10;85.40
7934;DHT22;4012;48.896;9.192;2023-07-20T12:06:27;26.70;85.70
7934;DHT22;4012;48.896;9.192;2023-07-20T12:08:59;26.40;87.30
7934;DHT22;4012;48.896;9.192;2023-07-20T12:11:35;26.00;83.80
7934;DHT22;4012;48.896;9.192;2023-07-20T12:14:01;25.90;84.50
7934;DHT22;4012;48.896;9.192;2023-07-20T12:16:29;26.10;86.70
7934;DHT22;4012;48.896;9.192;2023-07-20T12:19:09;26.30;87.20
7934;DHT22;4012;48.896;9.192;2023-07-20T12:21:36;26.90;85.30
7934;DHT22;4012;48.896;9.192;2023-07-20T12:24:03;26.60;83.20
7934;DHT22;4012;48.896;9.192;2023-07-20T12:26:30;26.50;80.90
7934;DHT22;4012;48.896;9.192;2023-07-20T12:28:56;26.10;79.70
7934;DHT22;4012;48.896;9.192;2023-07-20T12:31:22;26.60;79.10
7934;DHT22;4012;48.896;9.192;2023-07-20T12:33:50;26.80;77.40
7934;DHT22;4012;48.896;9.192;2023-07-20T12:36:16;26.70;77.90
7934;DHT22;4012;48.896;9.192;2023-07-20T12:38:41;26.70;82.30
7934;DHT22;4012;48.896;9.192;2023-07-20T12:41:09;26.30;78.60
7934;DHT22;4012;48.896;9.192;2023-07-20T12:43:35;26.30;79.40
7934;DHT22;4012;48.896;9.192;2023-07-20T12:46:01;26.30;79.70
7934;DHT22;4012;48.896;9.192;2023-07-20T12:48:26;26.40;81.20
7934;DHT22;4012;48.896;9.192;2023-07-20T12:50:52;26.70;81.50
7934;DHT22;4012;48.896;9.192;2023-07-20T12:53:18;26.50;83.60
7934;DHT22;4012;48.896;9.192;2023-07-20T12:55:43;26.80;84.30
7934;DHT22;4012;48.896;9.192;2023-07-20T12:58:11;26.40;83.70
7934;DHT22;4012;48.896;9.192;2023-07-20T13:00:37;26.50;84.60
7934;DHT22;4012;48.896;9.192;2023-07-20T13:03:02;26.10;83.30
7934;DHT22;4012;48.896;9.192;2023-07-20T13:05:31;26.30;81.90
7934;DHT22;4012;48.896;9.192;2023-07-20T13:07:57;25.90;82.30
7934;DHT22;4012;48.896;9.192;2023-07-20T13:10:24;26.10;83.20
7934;DHT22;4012;48.896;9.192;2023-07-20T13:12:50;26.20;83.50
7934;DHT22;4012;48.896;9.192;2023-07-20T13:15:16;26.30;83.10
7934;DHT22;4012;48.896;9.192;2023-07-20T13:17:42;26.80;82.30
7934;DHT22;4012;48.896;9.192;2023-07-20T13:20:09;27.40;82.00
7934;DHT22;4012;48.896;9.192;2023-07-20T13:22:39;27.20;81.20
7934;DHT22;4012;48.896;9.192;2023-07-20T13:25:06;27.10;81.00
7934;DHT22;4012;48.896;9.192;2023-07-20T13:27:33;27.00;79.90
7934;DHT22;4012;48.896;9.192;2023-07-20T13:29:59;27.20;78.90
7934;DHT22;4012;48.896;9.192;2023-07-20T13:32:26;27.20;76.00
7934;DHT22;4012;48.896;9.192;2023-07-20T13:34:52;26.50;76.00
7934;DHT22;4012;48.896;9.192;2023-07-20T13:37:18;26.60;76.20
7934;DHT22;4012;48.896;9.192;2023-07-20T13:39:43;26.80;74.50
7934;DHT22;4012;48.896;9.192;2023-07-20T13:42:09;26.70;75.60
7934;DHT22;4012;48.896;9.192;2023-07-20T13:44:36;26.50;77.30
7934;DHT22;4012;48.896;9.192;2023-07-20T13:47:03;26.80;77.10
7934;DHT22;4012;48.896;9.192;2023-07-20T13:49:30;27.10;77.60
7934;DHT22;4012;48.896;9.192;2023-07-20T13:51:56;27.20;78.20
7934;DHT22;4012;48.896;9.192;2023-07-20T13:54:23;26.50;78.60
7934;DHT22;4012;48.896;9.192;2023-07-20T13:56:48;26.80;78.10
7934;DHT22;4012;48.896;9.192;2023-07-20T13:59:14;27.20;77.80
7934;DHT22;4012;48.896;9.192;2023-07-20T14:01:40;27.30;76.90
7934;DHT22;4012;48.896;9.192;2023-07-20T14:04:05;27.60;77.50
7934;DHT22;4012;48.896;9.192;2023-07-20T14:06:32;28.00;77.20
7934;DHT22;4012;48.896;9.192;2023-07-20T14:08:59;28.20;77.00
7934;DHT22;4012;48.896;9.192;2023-07-20T14:11:24;28.50;75.20
7934;DHT22;4012;48.896;9.192;2023-07-20T14:13:51;27.90;74.40
7934;DHT22;4012;48.896;9.192;2023-07-20T14:16:18;27.50;73.90
7934;DHT22;4012;48.896;9.192;2023-07-20T14:18:44;27.50;74.70
7934;DHT22;4012;48.896;9.192;2023-07-20T14:21:12;26.90;75.40
7934;DHT22;4012;48.896;9.192;2023-07-20T14:23:38;27.10;76.20
7934;DHT22;4012;48.896;9.192;2023-07-20T14:26:04;27.10;76.10
7934;DHT22;4012;48.896;9.192;2023-07-20T14:28:34;27.10;75.90
7934;DHT22;4012;48.896;9.192;2023-07-20T14:31:00;27.30;76.50
7934;DHT22;4012;48.896;9.192;2023-07-20T14:33:25;27.10;76.40
7934;DHT22;4012;48.896;9.192;2023-07-20T14:35:51;27.20;77.10
7934;DHT22;4012;48.896;9.192;2023-07-20T14:38:16;27.30;77.20
7934;DHT22;4012;48.896;9.192;2023-07-20T14:40:42;27.20;77.00
7934;DHT22;4012;48.896;9.192;2023-07-20T14:43:08;27.60;76.60
7934;DHT22;4012;48.896;9.192;2023-07-20T14:45:35;28.10;76.20
7934;DHT22;4012;48.896;9.192;2023-07-20T14:48:03;28.00;75.40
7934;DHT22;4012;48.896;9.192;2023-07-20T14:50:29;27.70;76.60
7934;DHT22;4012;48.896;9.192;2023-07-20T14:52:56;27.30;78.20
7934;DHT22;4012;48.896;9.192;2023-07-20T14:55:28;27.20;79.00
7934;DHT22;4012;48.896;9.192;2023-07-20T14:57:54;26.80;79.40
7934;DHT22;4012;48.896;9.192;2023-07-20T15:00:20;26.70;80.10
7934;DHT22;4012;48.896;9.192;2023-07-20T15:02:46;26.80;80.70
7934;DHT22;4012;48.896;9.192;2023-07-20T15:05:12;26.80;81.20
7934;DHT22;4012;48.896;9.192;2023-07-20T15:07:45;27.00;77.90
7934;DHT22;4012;48.896;9.192;2023-07-20T15:10:11;27.20;77.20
7934;DHT22;4012;48.896;9.192;2023-07-20T15:12:36;27.10;77.10
7934;DHT22;4012;48.896;9.192;2023-07-20T15:15:13;26.80;75.20
7934;DHT22;4012;48.896;9.192;2023-07-20T15:17:40;26.90;75.10
7934;DHT22;4012;48.896;9.192;2023-07-20T15:20:07;27.00;75.50
7934;DHT22;4012;48.896;9.192;2023-07-20T15:22:34;27.30;74.90
7934;DHT22;4012;48.896;9.192;2023-07-20T15:25:02;27.40;74.70
7934;DHT22;4012;48.896;9.192;2023-07-20T15:27:28;27.30;74.20
7934;DHT22;4012;48.896;9.192;2023-07-20T15:29:53;26.90;74.30
7934;DHT22;4012;48.896;9.192;2023-07-20T15:32:19;26.60;74.30
7934;DHT22;4012;48.896;9.192;2023-07-20T15:34:46;26.50;74.90
7934;DHT22;4012;48.896;9.192;2023-07-20T15:37:12;26.80;75.10
7934;DHT22;4012;48.896;9.192;2023-07-20T15:39:39;26.90;76.00
7934;DHT22;4012;48.896;9.192;2023-07-20T15:42:05;26.90;75.40
7934;DHT22;4012;48.896;9.192;2023-07-20T15:44:31;26.70;76.20
7934;DHT22;4012;48.896;9.192;2023-07-20T15:46:57;26.50;76.40
7934;DHT22;4012;48.896;9.192;2023-07-20T15:49:23;26.50;76.90
7934;DHT22;4012;48.896;9.192;2023-07-20T15:51:53;26.60;76.50
7934;DHT22;4012;48.896;9.192;2023-07-20T15:54:19;26.60;77.40
7934;DHT22;4012;48.896;9.192;2023-07-20T15:56:44;26.90;77.00
7934;DHT22;4012;48.896;9.192;2023-07-20T15:59:11;26.70;77.00
7934;DHT22;4012;48.896;9.192;2023-07-20T16:01:38;26.50;77.50
7934;DHT22;4012;48.896;9.192;2023-07-20T16:04:04;26.60;77.40
7934;DHT22;4012;48.896;9.192;2023-07-20T16:06:31;26.80;76.90
7934;DHT22;4012;48.896;9.192;2023-07-20T16:08:56;26.90;76.80
7934;DHT22;4012;48.896;9.192;2023-07-20T16:11:23;26.90;76.70
7934;DHT22;4012;48.896;9.192;2023-07-20T16:13:50;26.90;76.90
7934;DHT22;4012;48.896;9.192;2023-07-20T16:16:19;27.00;76.80
7934;DHT22;4012;48.896;9.192;2023-07-20T16:18:44;26.50;77.20